Avon Park, Florida
Current Conditions -  °F | °C
As of 5:35 PM on Saturday 27 Dec 2014 (Local Time) from KBOW Reporting Station
Clear Clear  
Wind Chill: 75°   Ceiling: Unl
Heat Index: 75°   Visibility: 10mi
Dew Point: 66°   Wind: 3mph
Humidity: 73%   Direction: 110°ESE
Pressure: 30.17"   Gusts: NA
Location:  27.6°N, 81.51°W
Report Text: KBOW 272235Z AUTO 11003KT 10SM CLR 24/19 A3017 RMK AO2
Loading
Personal Weather Stations






























Interactive Weather Map New forecast layout! Learn more

10-Day Weather Forecast

Advertisements
Track Severe Weather on mobile